createdAt,value
2017-10-14T00:02:19.789Z,14.80
2017-10-14T00:04:47.378Z,14.80
2017-10-14T00:07:14.913Z,14.80
2017-10-14T00:09:42.484Z,14.80
2017-10-14T00:12:10.489Z,14.70
2017-10-14T00:14:38.786Z,14.70
2017-10-14T00:17:06.325Z,14.70
2017-10-14T00:19:34.742Z,14.70
2017-10-14T00:22:02.286Z,14.70
2017-10-14T00:24:29.854Z,14.70
2017-10-14T00:26:57.391Z,14.70
2017-10-14T00:29:25.390Z,14.70
2017-10-14T00:31:52.920Z,14.60
2017-10-14T00:34:21.258Z,14.60
2017-10-14T00:36:48.800Z,14.60
2017-10-14T00:39:16.402Z,14.60
2017-10-14T00:41:44.692Z,14.60
2017-10-14T00:44:12.996Z,14.50
2017-10-14T00:46:40.577Z,14.50
2017-10-14T00:49:08.120Z,14.50
2017-10-14T00:51:35.697Z,14.50
2017-10-14T00:54:03.224Z,14.50
2017-10-14T00:56:30.817Z,14.40
2017-10-14T00:58:58.346Z,14.40
2017-10-14T01:01:25.886Z,14.40
2017-10-14T01:03:54.300Z,14.30
2017-10-14T01:06:21.838Z,14.30
2017-10-14T01:08:49.419Z,14.20
2017-10-14T01:11:17.032Z,14.20
2017-10-14T01:13:45.329Z,14.20
2017-10-14T01:16:13.630Z,14.10
2017-10-14T01:18:41.350Z,14.10
2017-10-14T01:21:09.663Z,14.00
2017-10-14T01:23:37.305Z,14.00
2017-10-14T01:26:05.610Z,14.00
2017-10-14T01:28:33.236Z,14.00
2017-10-14T01:31:01.541Z,13.90
2017-10-14T01:33:30.785Z,13.90
2017-10-14T01:35:58.316Z,13.90
2017-10-14T01:38:25.853Z,13.90
2017-10-14T01:40:53.481Z,13.90
2017-10-14T01:43:21.026Z,13.80
2017-10-14T01:45:48.906Z,13.80
2017-10-14T01:48:16.446Z,13.80
2017-10-14T01:50:44.608Z,13.70
2017-10-14T01:53:12.135Z,13.70
2017-10-14T01:55:39.710Z,13.70
2017-10-14T01:58:07.244Z,13.60
2017-10-14T02:00:35.586Z,13.60
2017-10-14T02:03:03.128Z,13.60
2017-10-14T02:05:30.697Z,13.60
2017-10-14T02:07:58.239Z,13.50
2017-10-14T02:10:25.993Z,13.60
2017-10-14T02:12:53.522Z,13.50
2017-10-14T02:15:21.866Z,13.40
2017-10-14T02:17:49.397Z,13.40
2017-10-14T02:20:17.042Z,13.40
2017-10-14T02:22:44.573Z,13.40
2017-10-14T02:25:12.976Z,13.30
2017-10-14T02:27:40.593Z,13.30
2017-10-14T02:30:08.165Z,13.30
2017-10-14T02:32:36.109Z,13.30
2017-10-14T02:35:03.642Z,13.30
2017-10-14T02:37:31.181Z,13.20
2017-10-14T02:39:58.853Z,13.20
2017-10-14T02:42:26.426Z,13.20
2017-10-14T02:44:53.997Z,13.10
2017-10-14T02:47:22.293Z,13.10
2017-10-14T02:49:49.869Z,13.00
2017-10-14T02:52:17.409Z,13.10
2017-10-14T02:54:44.997Z,13.00
2017-10-14T02:57:12.531Z,13.00
2017-10-14T02:59:40.389Z,13.00
2017-10-14T03:02:07.923Z,12.90
2017-10-14T03:04:35.775Z,12.90
2017-10-14T03:07:03.317Z,12.90
2017-10-14T03:09:31.621Z,12.80
2017-10-14T03:11:59.202Z,12.80
2017-10-14T03:14:26.737Z,12.80
2017-10-14T03:16:54.317Z,12.80
2017-10-14T03:19:21.858Z,12.70
2017-10-14T03:21:49.564Z,12.70
2017-10-14T03:24:17.101Z,12.70
2017-10-14T03:26:44.632Z,12.70
2017-10-14T03:29:12.548Z,12.70
2017-10-14T03:31:40.391Z,12.70
2017-10-14T03:34:07.934Z,12.60
2017-10-14T03:36:35.468Z,12.70
2017-10-14T03:39:03.813Z,12.60
2017-10-14T03:41:31.351Z,12.60
2017-10-14T03:43:59.037Z,12.60
2017-10-14T03:46:26.573Z,12.60
2017-10-14T03:48:54.113Z,12.60
2017-10-14T03:51:21.694Z,12.50
2017-10-14T03:53:49.238Z,12.50
2017-10-14T03:56:16.838Z,12.50
2017-10-14T03:58:44.377Z,12.50
2017-10-14T04:01:11.916Z,12.50
2017-10-14T04:03:39.496Z,12.50
2017-10-14T04:06:07.069Z,12.40
2017-10-14T04:08:34.600Z,12.50
2017-10-14T04:11:02.174Z,12.40
2017-10-14T04:13:30.034Z,12.40
2017-10-14T04:15:57.579Z,12.40
2017-10-14T04:18:25.128Z,12.40
2017-10-14T04:20:53.468Z,12.30
2017-10-14T04:23:21.509Z,12.30
2017-10-14T04:25:49.049Z,12.20
2017-10-14T04:28:16.898Z,12.20
2017-10-14T04:30:45.481Z,12.20
2017-10-14T04:33:13.785Z,12.20
2017-10-14T04:35:41.365Z,12.20
2017-10-14T04:38:08.945Z,12.20
2017-10-14T04:40:36.477Z,12.20
2017-10-14T04:43:04.049Z,12.10
2017-10-14T04:45:31.585Z,12.10
2017-10-14T04:47:59.165Z,12.10
2017-10-14T04:50:26.717Z,12.10
2017-10-14T04:52:54.293Z,12.00
2017-10-14T04:55:21.828Z,12.00
2017-10-14T04:57:53.100Z,12.00
2017-10-14T05:00:20.636Z,12.00
2017-10-14T05:02:48.222Z,11.90
2017-10-14T05:05:15.805Z,11.90
2017-10-14T05:07:43.351Z,11.90
2017-10-14T05:10:10.988Z,11.90
2017-10-14T05:12:38.538Z,11.90
2017-10-14T05:15:06.121Z,11.80
2017-10-14T05:17:34.405Z,11.80
2017-10-14T05:20:01.974Z,11.80
2017-10-14T05:22:29.530Z,11.80
2017-10-14T05:24:57.202Z,11.70
2017-10-14T05:27:24.782Z,11.70
2017-10-14T05:29:53.446Z,11.70
2017-10-14T05:32:21.281Z,11.70
2017-10-14T05:34:49.588Z,11.60
2017-10-14T05:37:17.191Z,11.60
2017-10-14T05:39:44.828Z,11.60
2017-10-14T05:42:13.157Z,11.60
2017-10-14T05:44:40.744Z,11.60
2017-10-14T05:47:10.770Z,11.50
2017-10-14T05:49:38.473Z,11.50
2017-10-14T05:52:06.013Z,11.50
2017-10-14T05:54:34.530Z,11.50
2017-10-14T05:57:02.200Z,11.50
2017-10-14T05:59:29.745Z,11.50
2017-10-14T06:01:57.301Z,11.50
2017-10-14T06:04:24.881Z,11.50
2017-10-14T06:06:52.426Z,11.50
2017-10-14T06:09:20.640Z,11.40
2017-10-14T06:11:48.178Z,11.40
2017-10-14T06:14:15.722Z,11.40
2017-10-14T06:16:43.301Z,11.40
2017-10-14T06:19:11.058Z,11.40
2017-10-14T06:21:38.600Z,11.40
2017-10-14T06:24:06.501Z,11.40
2017-10-14T06:26:34.041Z,11.40
2017-10-14T06:29:05.384Z,11.40
2017-10-14T06:31:34.361Z,11.40
2017-10-14T06:34:01.939Z,11.50
2017-10-14T06:36:29.488Z,11.50
2017-10-14T06:38:57.394Z,11.50
2017-10-14T06:41:24.929Z,11.50
2017-10-14T06:43:52.760Z,11.50
2017-10-14T06:46:21.057Z,11.60
2017-10-14T06:48:48.605Z,11.50
2017-10-14T06:51:18.270Z,11.60
2017-10-14T06:53:45.984Z,11.60
2017-10-14T06:56:13.609Z,11.60
2017-10-14T06:58:41.234Z,11.70
2017-10-14T07:01:08.797Z,11.70
2017-10-14T07:03:36.386Z,11.70
2017-10-14T07:06:03.929Z,11.80
2017-10-14T07:08:31.511Z,11.80
2017-10-14T07:10:59.055Z,11.80
2017-10-14T07:13:26.818Z,11.90
2017-10-14T07:15:54.370Z,11.90
2017-10-14T07:18:21.920Z,12.00
2017-10-14T07:20:50.209Z,12.00
2017-10-14T07:23:17.757Z,12.10
2017-10-14T07:25:45.302Z,12.10
2017-10-14T07:28:16.578Z,12.20
2017-10-14T07:30:44.352Z,12.20
2017-10-14T07:33:12.030Z,12.30
2017-10-14T07:35:39.620Z,12.30
2017-10-14T07:38:07.977Z,12.50
2017-10-14T07:40:35.558Z,12.50
2017-10-14T07:43:03.965Z,12.60
2017-10-14T07:45:31.505Z,12.60
2017-10-14T07:47:59.218Z,12.70
2017-10-14T07:50:26.761Z,12.80
2017-10-14T07:52:54.346Z,12.90
2017-10-14T07:55:21.931Z,12.90
2017-10-14T07:57:50.237Z,13.10
2017-10-14T08:00:18.133Z,13.10
2017-10-14T08:02:45.682Z,13.20
2017-10-14T08:05:13.278Z,13.30
2017-10-14T08:07:41.097Z,13.40
2017-10-14T08:10:11.112Z,13.40
2017-10-14T08:12:38.982Z,13.50
2017-10-14T08:15:08.859Z,13.70
2017-10-14T08:17:38.469Z,13.80
2017-10-14T08:20:06.789Z,13.80
2017-10-14T08:22:34.673Z,13.80
2017-10-14T08:25:02.218Z,13.90
2017-10-14T08:27:29.821Z,14.00
2017-10-14T08:29:57.520Z,14.10
2017-10-14T08:32:26.785Z,14.20
2017-10-14T08:34:54.325Z,14.20
2017-10-14T08:37:21.860Z,14.30
2017-10-14T08:39:49.446Z,14.40
2017-10-14T08:42:17.029Z,14.50
2017-10-14T08:44:44.576Z,14.60
2017-10-14T08:47:12.161Z,14.60
2017-10-14T08:49:40.469Z,14.80
2017-10-14T08:52:08.200Z,14.80
2017-10-14T08:54:36.510Z,14.90
2017-10-14T08:57:04.093Z,14.90
2017-10-14T08:59:31.637Z,15.00
2017-10-14T09:01:59.273Z,15.10
2017-10-14T09:04:27.582Z,15.20
2017-10-14T09:06:55.575Z,15.20
2017-10-14T09:09:23.129Z,15.30
2017-10-14T09:11:50.662Z,15.40
2017-10-14T09:14:18.288Z,15.50
2017-10-14T09:16:46.598Z,15.60
2017-10-14T09:19:14.234Z,15.70
2017-10-14T09:21:42.539Z,15.80
2017-10-14T09:24:10.196Z,15.80
2017-10-14T09:26:37.742Z,15.90
2017-10-14T09:29:05.370Z,16.00
2017-10-14T09:31:33.017Z,16.10
2017-10-14T09:34:00.556Z,16.10
2017-10-14T09:36:28.141Z,16.20
2017-10-14T09:38:55.681Z,16.30
2017-10-14T09:41:23.277Z,16.30
2017-10-14T09:43:50.822Z,16.40
2017-10-14T09:46:18.470Z,16.50
2017-10-14T09:48:46.051Z,16.60
2017-10-14T09:51:13.605Z,16.70
2017-10-14T09:53:41.189Z,16.80
2017-10-14T09:56:09.506Z,16.90
2017-10-14T09:58:37.092Z,16.90
2017-10-14T10:01:04.634Z,16.90
2017-10-14T10:03:32.217Z,17.00
2017-10-14T10:05:59.759Z,17.10
2017-10-14T10:08:27.357Z,17.10
2017-10-14T10:10:54.902Z,17.20
2017-10-14T10:13:22.502Z,17.20
2017-10-14T10:15:50.814Z,17.20
2017-10-14T10:18:18.547Z,17.20
2017-10-14T10:20:46.094Z,17.30
2017-10-14T10:23:14.506Z,17.50
2017-10-14T10:25:42.050Z,17.50
2017-10-14T10:28:09.727Z,17.60
2017-10-14T10:30:37.357Z,17.60
2017-10-14T10:33:05.681Z,17.70
2017-10-14T10:35:33.561Z,17.70
2017-10-14T10:38:01.158Z,17.80
2017-10-14T10:40:29.477Z,17.90
2017-10-14T10:42:57.369Z,17.90
2017-10-14T10:45:24.912Z,18.00
2017-10-14T10:47:53.217Z,18.10
2017-10-14T10:50:20.945Z,18.10
2017-10-14T10:52:48.493Z,18.20
2017-10-14T10:55:16.074Z,18.30
2017-10-14T10:57:43.625Z,18.30
2017-10-14T11:00:11.205Z,18.40
2017-10-14T11:02:38.790Z,18.40
2017-10-14T11:05:06.334Z,18.50
2017-10-14T11:07:34.294Z,18.60
2017-10-14T11:10:01.825Z,18.60
2017-10-14T11:12:29.365Z,18.70
2017-10-14T11:14:57.708Z,18.80
2017-10-14T11:17:25.244Z,18.80
2017-10-14T11:19:52.822Z,18.90
2017-10-14T11:22:20.374Z,19.00
2017-10-14T11:24:48.230Z,19.00
2017-10-14T11:27:15.769Z,19.10
2017-10-14T11:29:44.082Z,19.10
2017-10-14T11:32:11.635Z,19.20
2017-10-14T11:34:39.174Z,19.30
2017-10-14T11:37:06.753Z,19.30
2017-10-14T11:39:34.483Z,19.40
2017-10-14T11:42:02.023Z,19.40
2017-10-14T11:44:30.812Z,19.50
2017-10-14T11:46:59.119Z,19.60
2017-10-14T11:49:26.654Z,19.60
2017-10-14T11:51:54.997Z,19.70
2017-10-14T11:54:23.956Z,19.70
2017-10-14T11:56:51.488Z,19.70
2017-10-14T11:59:20.963Z,19.80
2017-10-14T12:01:48.509Z,19.80
2017-10-14T12:04:16.054Z,19.80
2017-10-14T12:06:43.633Z,19.80
2017-10-14T12:09:11.167Z,19.80
2017-10-14T12:11:39.056Z,19.80
2017-10-14T12:14:06.599Z,19.90
2017-10-14T12:16:34.142Z,20.00
2017-10-14T12:19:02.016Z,20.00
2017-10-14T12:21:29.617Z,20.10
2017-10-14T12:23:57.165Z,20.10
2017-10-14T12:26:24.741Z,20.20
2017-10-14T12:28:52.269Z,20.20
2017-10-14T12:31:20.137Z,20.20
2017-10-14T12:33:47.677Z,20.30
2017-10-14T12:36:19.225Z,20.30
2017-10-14T12:38:47.954Z,20.40
2017-10-14T12:41:15.492Z,20.40
2017-10-14T12:43:43.030Z,20.50
2017-10-14T12:46:10.612Z,20.60
2017-10-14T12:48:38.195Z,20.60
2017-10-14T12:51:05.734Z,20.60
2017-10-14T12:53:34.519Z,20.70
2017-10-14T12:56:02.825Z,20.80
2017-10-14T12:58:30.374Z,20.70
2017-10-14T13:00:57.970Z,20.80
2017-10-14T13:03:26.286Z,20.90
2017-10-14T13:05:53.887Z,20.90
2017-10-14T13:08:21.437Z,20.90
2017-10-14T13:10:49.529Z,21.00
2017-10-14T13:13:17.069Z,21.00
2017-10-14T13:15:44.610Z,21.10
2017-10-14T13:18:12.475Z,21.00
2017-10-14T13:20:40.026Z,20.90
2017-10-14T13:23:07.602Z,20.90
2017-10-14T13:25:35.146Z,20.80
2017-10-14T13:28:02.731Z,20.60
2017-10-14T13:30:30.366Z,20.60
2017-10-14T13:32:58.063Z,20.60
2017-10-14T13:35:25.600Z,20.60
2017-10-14T13:37:53.132Z,20.60
2017-10-14T13:40:20.721Z,20.70
2017-10-14T13:42:48.257Z,20.70
2017-10-14T13:45:16.118Z,20.80
2017-10-14T13:47:43.659Z,20.80
2017-10-14T13:50:11.194Z,20.80
2017-10-14T13:52:38.985Z,20.80
2017-10-14T13:55:07.290Z,20.90
2017-10-14T13:57:34.862Z,20.90
2017-10-14T14:00:02.418Z,20.90
2017-10-14T14:02:29.999Z,20.90
2017-10-14T14:04:57.550Z,20.90
2017-10-14T14:07:25.201Z,20.90
2017-10-14T14:09:52.738Z,20.90
2017-10-14T14:12:21.090Z,20.90
2017-10-14T14:14:48.661Z,20.90
2017-10-14T14:17:17.011Z,21.00
2017-10-14T14:19:44.582Z,20.90
2017-10-14T14:22:12.425Z,21.00
2017-10-14T14:24:39.970Z,21.00
2017-10-14T14:27:07.625Z,21.00
2017-10-14T14:29:35.509Z,20.90
2017-10-14T14:32:03.085Z,20.90
2017-10-14T14:34:30.620Z,20.90
2017-10-14T14:36:58.162Z,20.90
2017-10-14T14:39:25.742Z,20.80
2017-10-14T14:41:53.386Z,20.80
2017-10-14T14:44:20.925Z,20.70
2017-10-14T14:46:49.225Z,20.50
2017-10-14T14:49:17.229Z,20.50
2017-10-14T14:51:44.764Z,20.40
2017-10-14T14:54:12.313Z,20.40
2017-10-14T14:56:40.066Z,20.30
2017-10-14T14:59:08.702Z,20.20
2017-10-14T15:01:36.244Z,20.10
2017-10-14T15:04:03.800Z,20.10
2017-10-14T15:06:31.379Z,20.00
2017-10-14T15:08:58.961Z,20.00
2017-10-14T15:11:26.501Z,19.90
2017-10-14T15:13:55.494Z,19.90
2017-10-14T15:16:23.040Z,19.80
2017-10-14T15:18:50.575Z,19.70
2017-10-14T15:21:18.218Z,19.70
2017-10-14T15:23:46.531Z,19.60
2017-10-14T15:26:14.258Z,19.60
2017-10-14T15:28:42.562Z,19.50
2017-10-14T15:31:11.817Z,19.50
2017-10-14T15:33:39.352Z,19.50
2017-10-14T15:36:06.941Z,19.40
2017-10-14T15:38:34.486Z,19.40
2017-10-14T15:41:02.061Z,19.30
2017-10-14T15:43:29.629Z,19.30
2017-10-14T15:45:57.941Z,19.20
2017-10-14T15:48:25.838Z,19.10
2017-10-14T15:50:53.373Z,19.10
2017-10-14T15:53:20.953Z,19.10
2017-10-14T15:55:48.528Z,19.10
2017-10-14T15:58:16.097Z,19.00
2017-10-14T16:00:43.693Z,19.00
2017-10-14T16:03:12.412Z,18.90
2017-10-14T16:05:39.947Z,18.90
2017-10-14T16:08:07.491Z,18.80
2017-10-14T16:10:41.361Z,18.70
2017-10-14T16:13:08.897Z,18.70
2017-10-14T16:15:36.447Z,18.60
2017-10-14T16:18:04.333Z,18.60
2017-10-14T16:20:31.900Z,18.50
2017-10-14T16:22:59.444Z,18.50
2017-10-14T16:25:27.284Z,18.40
2017-10-14T16:27:54.839Z,18.40
2017-10-14T16:30:22.853Z,18.30
2017-10-14T16:32:50.454Z,18.30
2017-10-14T16:35:17.985Z,18.20
2017-10-14T16:37:45.557Z,18.20
2017-10-14T16:40:13.090Z,18.10
2017-10-14T16:42:40.864Z,18.00
2017-10-14T16:45:08.456Z,18.00
2017-10-14T16:47:36.813Z,17.80
2017-10-14T16:50:04.351Z,17.80
2017-10-14T16:52:31.938Z,17.80
2017-10-14T16:54:59.480Z,17.70
2017-10-14T16:57:27.215Z,17.60
2017-10-14T16:59:54.758Z,17.60
2017-10-14T17:02:22.714Z,17.50
2017-10-14T17:04:51.029Z,17.40
2017-10-14T17:07:18.577Z,17.30
2017-10-14T17:09:46.285Z,17.30
2017-10-14T17:12:13.829Z,17.20
2017-10-14T17:14:41.380Z,17.20
2017-10-14T17:17:09.266Z,17.10
2017-10-14T17:19:36.816Z,17.00
2017-10-14T17:22:04.526Z,17.00
2017-10-14T17:24:34.193Z,16.80
2017-10-14T17:27:01.775Z,16.80
2017-10-14T17:29:29.318Z,16.80
2017-10-14T17:31:57.118Z,16.70
2017-10-14T17:34:25.442Z,16.60
2017-10-14T17:36:53.046Z,16.60
2017-10-14T17:39:20.591Z,16.60
2017-10-14T17:41:48.193Z,16.60
2017-10-14T17:44:15.737Z,16.50
2017-10-14T17:46:44.090Z,16.50
2017-10-14T17:49:11.642Z,16.50
2017-10-14T17:51:39.561Z,16.40
2017-10-14T17:54:07.109Z,16.40
2017-10-14T17:56:35.426Z,16.20
2017-10-14T17:59:03.000Z,16.20
2017-10-14T18:01:30.536Z,16.20
2017-10-14T18:03:58.537Z,16.10
2017-10-14T18:06:26.083Z,16.00
2017-10-14T18:08:53.629Z,16.00
2017-10-14T18:11:21.516Z,16.00
2017-10-14T18:13:49.053Z,15.90
2017-10-14T18:16:16.590Z,15.80
2017-10-14T18:18:44.953Z,15.70
2017-10-14T18:21:13.303Z,15.70
2017-10-14T18:23:44.617Z,15.70
2017-10-14T18:26:12.157Z,15.70
2017-10-14T18:28:40.924Z,15.60
2017-10-14T18:31:08.569Z,15.60
2017-10-14T18:33:36.112Z,15.60
2017-10-14T18:36:07.697Z,15.50
2017-10-14T18:38:35.241Z,15.50
2017-10-14T18:41:02.793Z,15.40
2017-10-14T18:43:30.386Z,15.40
2017-10-14T18:45:58.036Z,15.40
2017-10-14T18:48:25.629Z,15.40
2017-10-14T18:50:53.937Z,15.20
2017-10-14T18:53:21.874Z,15.20
2017-10-14T18:55:50.173Z,15.10
2017-10-14T18:58:17.787Z,15.10
2017-10-14T19:00:45.376Z,15.00
2017-10-14T19:03:13.681Z,14.90
2017-10-14T19:05:41.638Z,14.90
2017-10-14T19:08:09.178Z,14.90
2017-10-14T19:10:37.488Z,14.90
2017-10-14T19:13:05.360Z,14.90
2017-10-14T19:15:34.461Z,14.80
2017-10-14T19:18:02.002Z,14.80
2017-10-14T19:20:29.550Z,14.70
2017-10-14T19:22:58.894Z,14.70
2017-10-14T19:25:26.437Z,14.70
2017-10-14T19:27:53.988Z,14.70
2017-10-14T19:30:21.746Z,14.70
2017-10-14T19:32:49.337Z,14.60
2017-10-14T19:35:16.882Z,14.60
2017-10-14T19:37:44.866Z,14.60
2017-10-14T19:40:12.410Z,14.60
2017-10-14T19:42:39.953Z,14.60
2017-10-14T19:45:07.855Z,14.50
2017-10-14T19:47:35.417Z,14.50
2017-10-14T19:50:02.972Z,14.50
2017-10-14T19:52:30.705Z,14.50
2017-10-14T19:54:58.280Z,14.40
2017-10-14T19:57:28.625Z,14.30
2017-10-14T19:59:56.177Z,14.30
2017-10-14T20:02:23.737Z,14.30
2017-10-14T20:04:51.318Z,14.20
2017-10-14T20:07:20.095Z,14.20
2017-10-14T20:09:47.634Z,14.20
2017-10-14T20:12:15.180Z,14.20
2017-10-14T20:14:44.001Z,14.10
2017-10-14T20:17:11.543Z,14.10
2017-10-14T20:19:39.080Z,14.10
2017-10-14T20:22:06.663Z,14.10
2017-10-14T20:24:34.205Z,14.00
2017-10-14T20:27:02.038Z,14.00
2017-10-14T20:29:29.606Z,14.00
2017-10-14T20:31:57.289Z,14.00
2017-10-14T20:34:24.829Z,14.00
2017-10-14T20:36:52.377Z,14.00
2017-10-14T20:39:20.343Z,14.00
2017-10-14T20:41:47.884Z,13.90
2017-10-14T20:44:15.430Z,13.90
2017-10-14T20:46:43.072Z,13.90
2017-10-14T20:49:10.631Z,13.90
2017-10-14T20:51:38.291Z,13.90
2017-10-14T20:54:05.872Z,13.80
2017-10-14T20:56:33.453Z,13.80
2017-10-14T20:59:02.098Z,13.70
2017-10-14T21:01:29.640Z,13.70
2017-10-14T21:03:57.199Z,13.70
2017-10-14T21:06:24.877Z,13.60
2017-10-14T21:08:52.420Z,13.60
2017-10-14T21:11:19.997Z,13.60
2017-10-14T21:13:47.544Z,13.60
2017-10-14T21:16:15.128Z,13.50
2017-10-14T21:18:42.684Z,13.50
2017-10-14T21:21:10.290Z,13.50
2017-10-14T21:23:38.599Z,13.40
2017-10-14T21:26:06.150Z,13.40
2017-10-14T21:28:34.382Z,13.40
2017-10-14T21:31:02.081Z,13.40
2017-10-14T21:33:29.658Z,13.40
2017-10-14T21:35:57.209Z,13.40
2017-10-14T21:38:24.807Z,13.40
2017-10-14T21:40:52.368Z,13.40
2017-10-14T21:43:20.120Z,13.30
2017-10-14T21:45:47.665Z,13.30
2017-10-14T21:48:15.206Z,13.30
2017-10-14T21:50:42.786Z,13.30
2017-10-14T21:53:10.340Z,13.30
2017-10-14T21:55:37.929Z,13.20
2017-10-14T21:58:05.465Z,13.20
2017-10-14T22:00:38.366Z,13.20
2017-10-14T22:03:05.914Z,13.20
2017-10-14T22:05:34.265Z,13.10
2017-10-14T22:08:01.816Z,13.10
2017-10-14T22:10:30.125Z,13.00
2017-10-14T22:12:57.705Z,13.00
2017-10-14T22:15:25.394Z,13.00
2017-10-14T22:17:52.926Z,13.00
2017-10-14T22:20:20.473Z,13.00
2017-10-14T22:22:48.177Z,12.90
2017-10-14T22:25:15.725Z,12.90
2017-10-14T22:27:44.394Z,12.90
2017-10-14T22:30:11.936Z,12.90
2017-10-14T22:32:39.782Z,12.90
2017-10-14T22:35:07.477Z,12.90
2017-10-14T22:37:35.658Z,12.90
2017-10-14T22:40:03.200Z,12.80
2017-10-14T22:42:30.747Z,12.80
2017-10-14T22:44:58.349Z,12.80
2017-10-14T22:47:25.889Z,12.80
2017-10-14T22:49:53.469Z,12.70
2017-10-14T22:52:21.005Z,12.70
2017-10-14T22:54:53.781Z,12.60
2017-10-14T22:57:21.325Z,12.60
2017-10-14T22:59:48.875Z,12.60
2017-10-14T23:02:16.522Z,12.50
2017-10-14T23:04:44.878Z,12.50
2017-10-14T23:07:12.416Z,12.50
2017-10-14T23:09:39.952Z,12.50
2017-10-14T23:12:07.795Z,12.50
2017-10-14T23:14:36.108Z,12.40
2017-10-14T23:17:03.654Z,12.40
2017-10-14T23:19:36.570Z,12.40
2017-10-14T23:22:04.162Z,12.30
2017-10-14T23:24:31.702Z,12.20
2017-10-14T23:26:59.657Z,12.20
2017-10-14T23:29:27.200Z,12.10
2017-10-14T23:31:54.889Z,12.10
2017-10-14T23:34:22.746Z,12.10
2017-10-14T23:36:50.286Z,12.00
2017-10-14T23:39:17.830Z,12.00
2017-10-14T23:41:46.241Z,12.00
2017-10-14T23:44:13.782Z,12.00
2017-10-14T23:46:41.323Z,12.00
2017-10-14T23:49:08.906Z,12.00
2017-10-14T23:51:36.461Z,12.00
2017-10-14T23:54:04.041Z,12.00
2017-10-14T23:56:31.584Z,12.00
2017-10-14T23:58:59.269Z,12.00
